Hai Hua — XUDB9 — position and weather

sailwx.info

Track history (hours):
 
Tides and Currents Weather Stations Pressure Air Temp Water Temp Dewpoint Dewpoint Depression Visibility Wind Speed Wind Dir Waves Ship Positions

Hai Hua

Last reported at 2015-Mar-26 05:12 UTC. Time now 2015-Mar-28 22:14 UTC.
Position N 36°44' E 123°40'.

Length 69 m; draft 5.4 m.

Type: Cargo ship. MMSI: 515171000.

Date/timePositionNaut miles runAvg speedWind from/ knotsBaromVisibWave heightAir tempDewpointWater temp
2015-Mar-26 05:12N 36°44' E 123°40'6 8.7
2015-Mar-26 04:31N 36°49' E 123°36'9 8.3
2015-Mar-26 03:29N 36°56' E 123°30'10 7.8
2015-Mar-26 02:12N 37°04' E 123°23'6 7.6
2015-Mar-26 01:21N 37°10' E 123°19'7 7.7
2015-Mar-26 00:24N 37°16' E 123°14'7 8.1
2015-Mar-25 23:31N 37°22' E 123°09'9 8.8
2015-Mar-25 22:27N 37°30' E 123°02'18 8.7
2015-Mar-25 20:21N 37°37' E 122°41'9 9.9
2015-Mar-25 19:25N 37°36' E 122°30'910.1
2015-Mar-25 18:33N 37°37' E 122°19'10 9.5
2015-Mar-25 17:33N 37°38' E 122°07'9 9.1
2015-Mar-25 16:33N 37°39' E 121°56'9 8.8
2015-Mar-25 15:31N 37°39' E 121°44'8 8.8
2015-Mar-25 14:33N 37°39' E 121°33'8 8.1
2015-Mar-25 13:33N 37°35' E 121°24'1 1.2
2015-Mar-25 12:30N 37°35' E 121°23'0 0.0
2015-Mar-25 11:30N 37°35' E 121°23'0 0.0
2015-Mar-25 10:30N 37°35' E 121°23'0 0.0
2015-Mar-25 09:30N 37°35' E 121°23'0 0.0
2015-Mar-25 08:30N 37°35' E 121°23'0 0.0
2015-Mar-25 07:30N 37°35' E 121°23'0 0.0
2015-Mar-25 06:30N 37°35' E 121°23'0 0.0
2015-Mar-25 05:30N 37°35' E 121°23'0 0.0
2015-Mar-25 04:30N 37°35' E 121°23'0 0.0
2015-Mar-25 03:30N 37°35' E 121°23'0 0.4
2015-Mar-25 02:33N 37°35' E 121°23'5 5.0
2015-Mar-25 01:33N 37°40' E 121°22'1010.1
2015-Mar-25 00:31N 37°37' E 121°09'1 1.0
2015-Mar-24 23:32N 37°38' E 121°08'0 0.0
2015-Mar-24 22:32N 37°38' E 121°08'0 0.0
2015-Mar-24 21:32N 37°38' E 121°08'0 0.0
2015-Mar-24 20:32N 37°38' E 121°08'0 0.0
2015-Mar-24 19:32N 37°38' E 121°08'0 0.0
2015-Mar-24 18:26N 37°38' E 121°08'0 0.0
2015-Mar-24 17:32N 37°38' E 121°08'0 0.0
2015-Mar-24 16:20N 37°38' E 121°08'0 0.0
2015-Mar-24 15:08N 37°38' E 121°08'0 0.0
2015-Mar-24 14:26N 37°38' E 121°08'0 0.0
2015-Mar-24 13:32N 37°38' E 121°08'0 0.0
2015-Mar-24 12:32N 37°38' E 121°08'0 0.0
2015-Mar-24 11:32N 37°38' E 121°08'0 0.0
2015-Mar-24 10:32N 37°38' E 121°08'0 0.0
2015-Mar-24 09:32N 37°38' E 121°08'0 0.0
2015-Mar-24 08:32N 37°38' E 121°08'0 0.0
2015-Mar-24 07:32N 37°38' E 121°08'0 0.0
2015-Mar-24 06:32N 37°38' E 121°08'0 0.0
2015-Mar-24 05:32N 37°38' E 121°08'0 0.0
2015-Mar-24 04:32N 37°38' E 121°08'0 0.0
2015-Mar-24 03:32N 37°38' E 121°08'0 0.0
2015-Mar-24 02:32N 37°38' E 121°08'0 0.0
2015-Mar-24 01:32N 37°38' E 121°08'0 0.0
2015-Mar-24 00:32N 37°38' E 121°08'0 0.0
2015-Mar-23 23:26N 37°38' E 121°08'0 0.0
2015-Mar-23 22:32N 37°38' E 121°08'0 0.0
2015-Mar-23 21:32N 37°38' E 121°08'0 0.0
2015-Mar-23 20:26N 37°38' E 121°08'0 0.0
2015-Mar-23 19:26N 37°38' E 121°08'0 0.0
2015-Mar-23 18:32N 37°38' E 121°08'0 0.0
2015-Mar-23 17:32N 37°38' E 121°08'0 0.0
2015-Mar-23 16:32N 37°38' E 121°08'0 0.0
2015-Mar-23 15:26N 37°38' E 121°08'0 0.0
2015-Mar-23 14:32N 37°38' E 121°08'0 0.0
2015-Mar-23 13:32N 37°38' E 121°08'0 0.0
2015-Mar-23 12:32N 37°38' E 121°08'0 0.0
2015-Mar-23 11:32N 37°38' E 121°08'0 0.0
2015-Mar-23 10:32N 37°38' E 121°08'0 0.0
2015-Mar-23 09:26N 37°38' E 121°08'0 0.0
2015-Mar-23 08:32N 37°38' E 121°08'0 0.0
2015-Mar-23 07:34N 37°38' E 121°08'5 5.5
2015-Mar-23 06:34N 37°38' E 121°15'8 8.4
2015-Mar-23 05:33N 37°39' E 121°26'4 3.9
2015-Mar-23 04:34N 37°39' E 121°31'19 8.4
2015-Mar-23 02:15N 37°38' E 121°55'6 8.9
2015-Mar-23 01:33N 37°38' E 122°03'9 9.2
2015-Mar-23 00:33N 37°37' E 122°15'10 9.7
2015-Mar-22 23:33N 37°36' E 122°27'10 9.9
2015-Mar-22 22:30N 37°35' E 122°40'24 7.9
2015-Mar-22 19:27N 37°13' E 122°53'6 7.3
2015-Mar-22 18:34N 37°07' E 122°51'7 6.5
2015-Mar-22 17:30N 37°01' E 122°48'6 6.3
2015-Mar-22 16:33N 36°55' E 122°45'7 6.8
2015-Mar-22 15:33N 36°49' E 122°42'7 7.4
2015-Mar-22 14:33N 36°42' E 122°38'3 1.3
2015-Mar-22 12:22N 36°39' E 122°36'0 0.0
2015-Mar-22 11:16N 36°39' E 122°36'0 0.1
2015-Mar-22 10:28N 36°39' E 122°36'  
Track history (hours):
 
Tides and Currents Weather Stations Pressure Air Temp Water Temp Dewpoint Dewpoint Depression Visibility Wind Speed Wind Dir Waves Ship Positions

Hai Hua

Last reported at 2015-Mar-26 05:12 UTC. Time now 2015-Mar-28 22:14 UTC.
Position N 36°44' E 123°40'.

Length 69 m; draft 5.4 m.

Type: Cargo ship. MMSI: 515171000.

Date/timePositionNaut miles runAvg speedWind from/ knotsBaromVisibWave heightAir tempDewpointWater temp
2015-Mar-26 05:12N 36°44' E 123°40'6 8.7
2015-Mar-26 04:31N 36°49' E 123°36'9 8.3
2015-Mar-26 03:29N 36°56' E 123°30'10 7.8
2015-Mar-26 02:12N 37°04' E 123°23'6 7.6
2015-Mar-26 01:21N 37°10' E 123°19'7 7.7
2015-Mar-26 00:24N 37°16' E 123°14'7 8.1
2015-Mar-25 23:31N 37°22' E 123°09'9 8.8
2015-Mar-25 22:27N 37°30' E 123°02'18 8.7
2015-Mar-25 20:21N 37°37' E 122°41'9 9.9
2015-Mar-25 19:25N 37°36' E 122°30'910.1
2015-Mar-25 18:33N 37°37' E 122°19'10 9.5
2015-Mar-25 17:33N 37°38' E 122°07'9 9.1
2015-Mar-25 16:33N 37°39' E 121°56'9 8.8
2015-Mar-25 15:31N 37°39' E 121°44'8 8.8
2015-Mar-25 14:33N 37°39' E 121°33'8 8.1
2015-Mar-25 13:33N 37°35' E 121°24'1 1.2
2015-Mar-25 12:30N 37°35' E 121°23'0 0.0
2015-Mar-25 11:30N 37°35' E 121°23'0 0.0
2015-Mar-25 10:30N 37°35' E 121°23'0 0.0
2015-Mar-25 09:30N 37°35' E 121°23'0 0.0
2015-Mar-25 08:30N 37°35' E 121°23'0 0.0
2015-Mar-25 07:30N 37°35' E 121°23'0 0.0
2015-Mar-25 06:30N 37°35' E 121°23'0 0.0
2015-Mar-25 05:30N 37°35' E 121°23'0 0.0
2015-Mar-25 04:30N 37°35' E 121°23'0 0.0
2015-Mar-25 03:30N 37°35' E 121°23'0 0.4
2015-Mar-25 02:33N 37°35' E 121°23'5 5.0
2015-Mar-25 01:33N 37°40' E 121°22'1010.1
2015-Mar-25 00:31N 37°37' E 121°09'1 1.0
2015-Mar-24 23:32N 37°38' E 121°08'0 0.0
2015-Mar-24 22:32N 37°38' E 121°08'0 0.0
2015-Mar-24 21:32N 37°38' E 121°08'0 0.0
2015-Mar-24 20:32N 37°38' E 121°08'0 0.0
2015-Mar-24 19:32N 37°38' E 121°08'0 0.0
2015-Mar-24 18:26N 37°38' E 121°08'0 0.0
2015-Mar-24 17:32N 37°38' E 121°08'0 0.0
2015-Mar-24 16:20N 37°38' E 121°08'0 0.0
2015-Mar-24 15:08N 37°38' E 121°08'0 0.0
2015-Mar-24 14:26N 37°38' E 121°08'0 0.0
2015-Mar-24 13:32N 37°38' E 121°08'0 0.0
2015-Mar-24 12:32N 37°38' E 121°08'0 0.0
2015-Mar-24 11:32N 37°38' E 121°08'0 0.0
2015-Mar-24 10:32N 37°38' E 121°08'0 0.0
2015-Mar-24 09:32N 37°38' E 121°08'0 0.0
2015-Mar-24 08:32N 37°38' E 121°08'0 0.0
2015-Mar-24 07:32N 37°38' E 121°08'0 0.0
2015-Mar-24 06:32N 37°38' E 121°08'0 0.0
2015-Mar-24 05:32N 37°38' E 121°08'0 0.0
2015-Mar-24 04:32N 37°38' E 121°08'0 0.0
2015-Mar-24 03:32N 37°38' E 121°08'0 0.0
2015-Mar-24 02:32N 37°38' E 121°08'0 0.0
2015-Mar-24 01:32N 37°38' E 121°08'0 0.0
2015-Mar-24 00:32N 37°38' E 121°08'0 0.0
2015-Mar-23 23:26N 37°38' E 121°08'0 0.0
2015-Mar-23 22:32N 37°38' E 121°08'0 0.0
2015-Mar-23 21:32N 37°38' E 121°08'0 0.0
2015-Mar-23 20:26N 37°38' E 121°08'0 0.0
2015-Mar-23 19:26N 37°38' E 121°08'0 0.0
2015-Mar-23 18:32N 37°38' E 121°08'0 0.0
2015-Mar-23 17:32N 37°38' E 121°08'0 0.0
2015-Mar-23 16:32N 37°38' E 121°08'0 0.0
2015-Mar-23 15:26N 37°38' E 121°08'0 0.0
2015-Mar-23 14:32N 37°38' E 121°08'0 0.0
2015-Mar-23 13:32N 37°38' E 121°08'0 0.0
2015-Mar-23 12:32N 37°38' E 121°08'0 0.0
2015-Mar-23 11:32N 37°38' E 121°08'0 0.0
2015-Mar-23 10:32N 37°38' E 121°08'0 0.0
2015-Mar-23 09:26N 37°38' E 121°08'0 0.0
2015-Mar-23 08:32N 37°38' E 121°08'0 0.0
2015-Mar-23 07:34N 37°38' E 121°08'5 5.5
2015-Mar-23 06:34N 37°38' E 121°15'8 8.4
2015-Mar-23 05:33N 37°39' E 121°26'4 3.9
2015-Mar-23 04:34N 37°39' E 121°31'19 8.4
2015-Mar-23 02:15N 37°38' E 121°55'6 8.9
2015-Mar-23 01:33N 37°38' E 122°03'9 9.2
2015-Mar-23 00:33N 37°37' E 122°15'10 9.7
2015-Mar-22 23:33N 37°36' E 122°27'10 9.9
2015-Mar-22 22:30N 37°35' E 122°40'24 7.9
2015-Mar-22 19:27N 37°13' E 122°53'6 7.3
2015-Mar-22 18:34N 37°07' E 122°51'7 6.5
2015-Mar-22 17:30N 37°01' E 122°48'6 6.3
2015-Mar-22 16:33N 36°55' E 122°45'7 6.8
2015-Mar-22 15:33N 36°49' E 122°42'7 7.4
2015-Mar-22 14:33N 36°42' E 122°38'3 1.3
2015-Mar-22 12:22N 36°39' E 122°36'0 0.0
2015-Mar-22 11:16N 36°39' E 122°36'0 0.1
2015-Mar-22 10:28N 36°39' E 122°36'  

Dump ship's entire track history